This is the latest recevied weather packets stored in our database for station/object K1ADK-1. If no packets are shown the sender has not sent any weather packets the latest 10 day(s).
| Time | Temp. | Humidity | Pressure | Rain* | Wind** | Luminosity | Snow |
|---|---|---|---|---|---|---|---|
| 1777893936 | 11.11° C | 55% | 1013.8 hPa | 0 mm | - | 49 W/m² | - |
| 1777892116 | 10° C | 57% | 1014 hPa | 0 mm | - | 33 W/m² | - |
| 1777888516 | 9.44° C | 54% | 1013.5 hPa | 0 mm | - | 7 W/m² | - |
| 1777885535 | 10° C | 52% | 1013.4 hPa | 0 mm | - | 0 W/m² | - |
| 1777883735 | 10° C | 53% | 1013 hPa | 0 mm | - | 0 W/m² | - |
| 1777883135 | 9.44° C | 53% | 1012.8 hPa | 0 mm | - | 0 W/m² | - |
| 1777880715 | 10° C | 52% | 1012.7 hPa | 0 mm | - | 0 W/m² | - |
| 1777878915 | 10° C | 52% | 1012.4 hPa | 0 mm | - | 0 W/m² | - |
| 1777875917 | 9.44° C | 56% | 1012.3 hPa | 0 mm | - | 0 W/m² | - |
| 1777875317 | 9.44° C | 57% | 1012.3 hPa | 0 mm | - | 0 W/m² | - |
| 1777867537 | 7.22° C | 60% | 1012 hPa | 0 mm | - | 0 W/m² | - |
| 1777866917 | 6.67° C | 62% | 1012.1 hPa | 0 mm | - | 0 W/m² | - |
| 1777862117 | 8.33° C | 53% | 1012.1 hPa | 0 mm | - | 0 W/m² | - |
| 1777861517 | 8.33° C | 55% | 1012 hPa | 0 mm | - | 0 W/m² | - |
| 1777859117 | 9.44° C | 53% | 1011.7 hPa | 0 mm | - | 0 W/m² | - |
| 1777858517 | 9.44° C | 52% | 1011.7 hPa | 0 mm | - | 0 W/m² | - |
| 1777856757 | 10.56° C | 48% | 1011.4 hPa | 0 mm | - | 0 W/m² | - |
| 1777855537 | 11.11° C | 44% | 1011.1 hPa | 0 mm | - | 0 W/m² | - |
| 1777842916 | 14.44° C | 30% | 1009.7 hPa | 0 mm | - | 434 W/m² | - |
| 1777832116 | 13.33° C | 36% | 1010.4 hPa | 0 mm | - | 840 W/m² | - |
| 1777830916 | 12.78° C | 35% | 1010.1 hPa | 0 mm | - | 921 W/m² | - |
| 1777829716 | 12.22° C | 35% | 1010.1 hPa | 0 mm | - | 983 W/m² | - |
| 1777824316 | 10° C | 47% | 1010.7 hPa | 0 mm | - | 179 W/m² | - |
| 1777821316 | 10° C | 47% | 1010.9 hPa | 0 mm | - | 395 W/m² | - |
| 1777820716 | 10.56° C | 46% | 1010.7 hPa | 0 mm | - | 213 W/m² | - |
* Rain latest hour (hover to see other rain measurements)
** Current wind speed in m/s (hover to see current wind gust speed)